sensor_id;sensor_type;location;lat;lon;timestamp;P1;durP1;ratioP1;P2;durP2;ratioP2
16979;SDS011;42288;52.182;21.156;2023-07-30T00:02:01;5.93;;;3.03;;
16979;SDS011;42288;52.182;21.156;2023-07-30T00:04:27;5.13;;;3.30;;
16979;SDS011;42288;52.182;21.156;2023-07-30T00:06:53;5.23;;;3.13;;
16979;SDS011;42288;52.182;21.156;2023-07-30T00:09:18;3.20;;;2.70;;
16979;SDS011;42288;52.182;21.156;2023-07-30T00:11:44;3.33;;;2.87;;
16979;SDS011;42288;52.182;21.156;2023-07-30T00:14:09;5.13;;;2.97;;
16979;SDS011;42288;52.182;21.156;2023-07-30T00:16:35;5.13;;;3.00;;
16979;SDS011;42288;52.182;21.156;2023-07-30T00:19:00;9.70;;;2.97;;
16979;SDS011;42288;52.182;21.156;2023-07-30T00:21:26;4.33;;;2.93;;
16979;SDS011;42288;52.182;21.156;2023-07-30T00:23:52;5.27;;;3.13;;
16979;SDS011;42288;52.182;21.156;2023-07-30T00:26:18;5.50;;;3.10;;
16979;SDS011;42288;52.182;21.156;2023-07-30T00:28:43;6.90;;;2.70;;
16979;SDS011;42288;52.182;21.156;2023-07-30T00:31:09;5.20;;;2.83;;
16979;SDS011;42288;52.182;21.156;2023-07-30T00:33:34;4.93;;;2.77;;
16979;SDS011;42288;52.182;21.156;2023-07-30T00:36:00;5.93;;;3.20;;
16979;SDS011;42288;52.182;21.156;2023-07-30T00:38:25;5.97;;;2.50;;
16979;SDS011;42288;52.182;21.156;2023-07-30T00:40:51;4.30;;;2.60;;
16979;SDS011;42288;52.182;21.156;2023-07-30T00:43:17;6.23;;;2.73;;
16979;SDS011;42288;52.182;21.156;2023-07-30T00:45:42;5.03;;;2.67;;
16979;SDS011;42288;52.182;21.156;2023-07-30T00:48:09;7.63;;;2.90;;
16979;SDS011;42288;52.182;21.156;2023-07-30T00:50:39;4.17;;;2.83;;
16979;SDS011;42288;52.182;21.156;2023-07-30T00:53:05;4.13;;;2.50;;
16979;SDS011;42288;52.182;21.156;2023-07-30T00:55:33;4.47;;;2.77;;
16979;SDS011;42288;52.182;21.156;2023-07-30T00:58:00;7.00;;;2.90;;
16979;SDS011;42288;52.182;21.156;2023-07-30T01:00:27;3.87;;;2.53;;
16979;SDS011;42288;52.182;21.156;2023-07-30T01:02:54;5.80;;;2.80;;
16979;SDS011;42288;52.182;21.156;2023-07-30T01:05:20;4.90;;;2.60;;
16979;SDS011;42288;52.182;21.156;2023-07-30T01:07:46;4.73;;;2.50;;
16979;SDS011;42288;52.182;21.156;2023-07-30T01:10:12;4.17;;;2.93;;
16979;SDS011;42288;52.182;21.156;2023-07-30T01:12:37;4.60;;;2.70;;
16979;SDS011;42288;52.182;21.156;2023-07-30T01:15:04;3.13;;;2.53;;
16979;SDS011;42288;52.182;21.156;2023-07-30T01:17:31;4.00;;;2.80;;
16979;SDS011;42288;52.182;21.156;2023-07-30T01:19:57;3.77;;;2.80;;
16979;SDS011;42288;52.182;21.156;2023-07-30T01:22:23;7.00;;;2.93;;
16979;SDS011;42288;52.182;21.156;2023-07-30T01:24:49;5.30;;;2.30;;
16979;SDS011;42288;52.182;21.156;2023-07-30T01:27:24;5.10;;;2.60;;
16979;SDS011;42288;52.182;21.156;2023-07-30T01:29:53;4.10;;;2.53;;
16979;SDS011;42288;52.182;21.156;2023-07-30T01:32:27;8.30;;;3.00;;
16979;SDS011;42288;52.182;21.156;2023-07-30T01:34:55;2.90;;;2.23;;
16979;SDS011;42288;52.182;21.156;2023-07-30T01:37:22;6.27;;;2.53;;
16979;SDS011;42288;52.182;21.156;2023-07-30T01:39:49;3.60;;;2.43;;
16979;SDS011;42288;52.182;21.156;2023-07-30T01:42:16;4.87;;;2.40;;
16979;SDS011;42288;52.182;21.156;2023-07-30T01:44:41;5.40;;;2.63;;
16979;SDS011;42288;52.182;21.156;2023-07-30T01:47:07;5.63;;;2.63;;
16979;SDS011;42288;52.182;21.156;2023-07-30T01:49:33;4.57;;;2.30;;
16979;SDS011;42288;52.182;21.156;2023-07-30T01:51:59;3.70;;;2.47;;
16979;SDS011;42288;52.182;21.156;2023-07-30T01:54:24;3.93;;;2.70;;
16979;SDS011;42288;52.182;21.156;2023-07-30T01:56:50;4.20;;;2.87;;
16979;SDS011;42288;52.182;21.156;2023-07-30T01:59:16;3.30;;;2.40;;
16979;SDS011;42288;52.182;21.156;2023-07-30T02:01:41;3.87;;;2.30;;
16979;SDS011;42288;52.182;21.156;2023-07-30T02:04:08;4.00;;;2.93;;
16979;SDS011;42288;52.182;21.156;2023-07-30T02:06:33;4.40;;;2.40;;
16979;SDS011;42288;52.182;21.156;2023-07-30T02:08:59;4.07;;;2.87;;
16979;SDS011;42288;52.182;21.156;2023-07-30T02:11:25;2.97;;;2.10;;
16979;SDS011;42288;52.182;21.156;2023-07-30T02:13:50;3.73;;;2.40;;
16979;SDS011;42288;52.182;21.156;2023-07-30T02:16:16;4.57;;;2.70;;
16979;SDS011;42288;52.182;21.156;2023-07-30T02:18:41;3.23;;;2.80;;
16979;SDS011;42288;52.182;21.156;2023-07-30T02:21:07;3.10;;;2.17;;
16979;SDS011;42288;52.182;21.156;2023-07-30T02:23:32;8.33;;;2.40;;
16979;SDS011;42288;52.182;21.156;2023-07-30T02:25:58;3.97;;;2.60;;
16979;SDS011;42288;52.182;21.156;2023-07-30T02:28:24;4.90;;;2.27;;
16979;SDS011;42288;52.182;21.156;2023-07-30T02:30:49;3.83;;;2.27;;
16979;SDS011;42288;52.182;21.156;2023-07-30T02:33:15;3.53;;;2.57;;
16979;SDS011;42288;52.182;21.156;2023-07-30T02:35:41;4.63;;;2.70;;
16979;SDS011;42288;52.182;21.156;2023-07-30T02:38:08;4.53;;;2.70;;
16979;SDS011;42288;52.182;21.156;2023-07-30T02:40:33;4.67;;;2.77;;
16979;SDS011;42288;52.182;21.156;2023-07-30T02:42:59;4.73;;;2.80;;
16979;SDS011;42288;52.182;21.156;2023-07-30T02:45:25;6.77;;;3.50;;
16979;SDS011;42288;52.182;21.156;2023-07-30T02:47:50;6.63;;;3.87;;
16979;SDS011;42288;52.182;21.156;2023-07-30T02:50:16;10.23;;;5.37;;
16979;SDS011;42288;52.182;21.156;2023-07-30T02:52:42;11.20;;;6.00;;
16979;SDS011;42288;52.182;21.156;2023-07-30T02:55:07;9.07;;;5.47;;
16979;SDS011;42288;52.182;21.156;2023-07-30T02:57:33;9.07;;;5.60;;
16979;SDS011;42288;52.182;21.156;2023-07-30T02:59:59;12.60;;;5.80;;
16979;SDS011;42288;52.182;21.156;2023-07-30T03:02:24;8.13;;;5.20;;
16979;SDS011;42288;52.182;21.156;2023-07-30T03:04:50;6.83;;;4.73;;
16979;SDS011;42288;52.182;21.156;2023-07-30T03:07:15;7.33;;;4.43;;
16979;SDS011;42288;52.182;21.156;2023-07-30T03:09:42;7.60;;;4.80;;
16979;SDS011;42288;52.182;21.156;2023-07-30T03:12:07;8.43;;;4.97;;
16979;SDS011;42288;52.182;21.156;2023-07-30T03:14:33;7.73;;;4.40;;
16979;SDS011;42288;52.182;21.156;2023-07-30T03:16:59;5.37;;;3.60;;
16979;SDS011;42288;52.182;21.156;2023-07-30T03:19:24;5.23;;;3.50;;
16979;SDS011;42288;52.182;21.156;2023-07-30T03:21:50;5.10;;;3.70;;
16979;SDS011;42288;52.182;21.156;2023-07-30T03:24:15;6.73;;;3.93;;
16979;SDS011;42288;52.182;21.156;2023-07-30T03:26:41;6.13;;;4.10;;
16979;SDS011;42288;52.182;21.156;2023-07-30T03:29:07;5.03;;;3.83;;
16979;SDS011;42288;52.182;21.156;2023-07-30T03:31:32;6.30;;;4.63;;
16979;SDS011;42288;52.182;21.156;2023-07-30T03:33:58;5.87;;;3.87;;
16979;SDS011;42288;52.182;21.156;2023-07-30T03:36:24;8.73;;;4.57;;
16979;SDS011;42288;52.182;21.156;2023-07-30T03:38:50;7.83;;;4.30;;
16979;SDS011;42288;52.182;21.156;2023-07-30T03:41:15;7.63;;;4.53;;
16979;SDS011;42288;52.182;21.156;2023-07-30T03:43:41;6.33;;;4.17;;
16979;SDS011;42288;52.182;21.156;2023-07-30T03:46:06;6.77;;;4.60;;
16979;SDS011;42288;52.182;21.156;2023-07-30T03:48:32;5.83;;;4.30;;
16979;SDS011;42288;52.182;21.156;2023-07-30T03:50:57;7.90;;;4.50;;
16979;SDS011;42288;52.182;21.156;2023-07-30T03:53:23;6.97;;;4.13;;
16979;SDS011;42288;52.182;21.156;2023-07-30T03:55:48;9.60;;;4.67;;
16979;SDS011;42288;52.182;21.156;2023-07-30T03:58:14;6.00;;;4.50;;
16979;SDS011;42288;52.182;21.156;2023-07-30T04:00:40;5.87;;;4.87;;
16979;SDS011;42288;52.182;21.156;2023-07-30T04:03:05;5.93;;;4.93;;
16979;SDS011;42288;52.182;21.156;2023-07-30T04:05:31;6.13;;;4.50;;
16979;SDS011;42288;52.182;21.156;2023-07-30T04:20:55;11.53;;;4.50;;
16979;SDS011;42288;52.182;21.156;2023-07-30T04:23:21;6.20;;;5.10;;
16979;SDS011;42288;52.182;21.156;2023-07-30T04:25:48;6.23;;;4.70;;
16979;SDS011;42288;52.182;21.156;2023-07-30T04:28:15;7.73;;;4.97;;
16979;SDS011;42288;52.182;21.156;2023-07-30T04:30:40;7.87;;;4.73;;
16979;SDS011;42288;52.182;21.156;2023-07-30T04:33:06;10.83;;;5.37;;
16979;SDS011;42288;52.182;21.156;2023-07-30T04:35:31;6.33;;;4.43;;
16979;SDS011;42288;52.182;21.156;2023-07-30T04:37:57;4.87;;;3.93;;
16979;SDS011;42288;52.182;21.156;2023-07-30T04:40:22;8.07;;;4.00;;
16979;SDS011;42288;52.182;21.156;2023-07-30T04:42:48;6.10;;;4.23;;
16979;SDS011;42288;52.182;21.156;2023-07-30T04:45:14;5.70;;;4.60;;
16979;SDS011;42288;52.182;21.156;2023-07-30T04:47:39;8.57;;;4.57;;
16979;SDS011;42288;52.182;21.156;2023-07-30T04:50:05;6.83;;;4.00;;
16979;SDS011;42288;52.182;21.156;2023-07-30T04:52:31;4.93;;;3.63;;
16979;SDS011;42288;52.182;21.156;2023-07-30T04:54:56;4.90;;;3.50;;
16979;SDS011;42288;52.182;21.156;2023-07-30T04:57:22;7.10;;;3.53;;
16979;SDS011;42288;52.182;21.156;2023-07-30T04:59:47;5.13;;;3.90;;
16979;SDS011;42288;52.182;21.156;2023-07-30T05:02:13;6.60;;;3.87;;
16979;SDS011;42288;52.182;21.156;2023-07-30T05:04:39;4.77;;;3.70;;
16979;SDS011;42288;52.182;21.156;2023-07-30T05:07:04;6.90;;;3.73;;
16979;SDS011;42288;52.182;21.156;2023-07-30T05:09:30;4.07;;;3.23;;
16979;SDS011;42288;52.182;21.156;2023-07-30T05:11:55;8.07;;;3.73;;
16979;SDS011;42288;52.182;21.156;2023-07-30T05:14:21;7.57;;;3.50;;
16979;SDS011;42288;52.182;21.156;2023-07-30T05:16:47;5.10;;;3.37;;
16979;SDS011;42288;52.182;21.156;2023-07-30T05:19:12;5.80;;;3.23;;
16979;SDS011;42288;52.182;21.156;2023-07-30T05:21:38;6.00;;;3.87;;
16979;SDS011;42288;52.182;21.156;2023-07-30T05:24:03;4.17;;;3.00;;
16979;SDS011;42288;52.182;21.156;2023-07-30T05:26:29;5.20;;;3.33;;
16979;SDS011;42288;52.182;21.156;2023-07-30T05:28:55;4.07;;;3.20;;
16979;SDS011;42288;52.182;21.156;2023-07-30T05:31:20;5.77;;;3.80;;
16979;SDS011;42288;52.182;21.156;2023-07-30T05:33:46;5.77;;;4.13;;
16979;SDS011;42288;52.182;21.156;2023-07-30T05:36:11;4.20;;;3.57;;
16979;SDS011;42288;52.182;21.156;2023-07-30T05:38:37;5.87;;;4.03;;
16979;SDS011;42288;52.182;21.156;2023-07-30T05:41:03;6.93;;;4.23;;
16979;SDS011;42288;52.182;21.156;2023-07-30T05:43:28;5.67;;;5.10;;
16979;SDS011;42288;52.182;21.156;2023-07-30T05:45:54;6.53;;;5.33;;
16979;SDS011;42288;52.182;21.156;2023-07-30T05:48:19;7.90;;;5.70;;
16979;SDS011;42288;52.182;21.156;2023-07-30T05:50:45;6.63;;;5.10;;
16979;SDS011;42288;52.182;21.156;2023-07-30T05:53:10;6.53;;;4.83;;
16979;SDS011;42288;52.182;21.156;2023-07-30T05:55:36;5.50;;;4.20;;
16979;SDS011;42288;52.182;21.156;2023-07-30T05:58:02;5.70;;;4.37;;
16979;SDS011;42288;52.182;21.156;2023-07-30T06:00:27;5.10;;;4.57;;
16979;SDS011;42288;52.182;21.156;2023-07-30T06:02:53;6.00;;;4.07;;
16979;SDS011;42288;52.182;21.156;2023-07-30T06:05:18;4.53;;;4.13;;
16979;SDS011;42288;52.182;21.156;2023-07-30T06:07:44;4.50;;;4.10;;
16979;SDS011;42288;52.182;21.156;2023-07-30T06:10:10;4.17;;;3.77;;
16979;SDS011;42288;52.182;21.156;2023-07-30T06:12:35;5.87;;;3.53;;
16979;SDS011;42288;52.182;21.156;2023-07-30T06:15:01;4.63;;;3.80;;
16979;SDS011;42288;52.182;21.156;2023-07-30T06:17:27;5.53;;;3.67;;
16979;SDS011;42288;52.182;21.156;2023-07-30T06:19:53;5.53;;;4.00;;
16979;SDS011;42288;52.182;21.156;2023-07-30T06:22:18;7.20;;;4.33;;
16979;SDS011;42288;52.182;21.156;2023-07-30T06:24:44;6.23;;;4.63;;
16979;SDS011;42288;52.182;21.156;2023-07-30T06:27:09;6.87;;;4.80;;
16979;SDS011;42288;52.182;21.156;2023-07-30T06:29:35;5.93;;;5.07;;
16979;SDS011;42288;52.182;21.156;2023-07-30T06:32:01;7.37;;;4.80;;
16979;SDS011;42288;52.182;21.156;2023-07-30T06:34:27;7.00;;;4.80;;
16979;SDS011;42288;52.182;21.156;2023-07-30T06:36:52;6.03;;;4.37;;
16979;SDS011;42288;52.182;21.156;2023-07-30T06:39:18;5.17;;;3.87;;
16979;SDS011;42288;52.182;21.156;2023-07-30T06:41:43;8.97;;;4.20;;
16979;SDS011;42288;52.182;21.156;2023-07-30T06:44:09;6.57;;;4.00;;
16979;SDS011;42288;52.182;21.156;2023-07-30T06:46:35;6.53;;;3.90;;
16979;SDS011;42288;52.182;21.156;2023-07-30T06:49:00;5.27;;;3.97;;
16979;SDS011;42288;52.182;21.156;2023-07-30T06:51:26;6.33;;;3.83;;
16979;SDS011;42288;52.182;21.156;2023-07-30T06:53:52;5.90;;;3.97;;
16979;SDS011;42288;52.182;21.156;2023-07-30T06:56:18;6.27;;;3.20;;
16979;SDS011;42288;52.182;21.156;2023-07-30T06:58:43;6.17;;;3.30;;
16979;SDS011;42288;52.182;21.156;2023-07-30T07:01:09;7.07;;;3.33;;
16979;SDS011;42288;52.182;21.156;2023-07-30T07:03:35;4.37;;;3.27;;
16979;SDS011;42288;52.182;21.156;2023-07-30T07:06:00;6.27;;;3.50;;
16979;SDS011;42288;52.182;21.156;2023-07-30T07:08:26;7.97;;;3.60;;
16979;SDS011;42288;52.182;21.156;2023-07-30T07:10:52;4.83;;;3.40;;
16979;SDS011;42288;52.182;21.156;2023-07-30T07:13:18;7.60;;;3.93;;
16979;SDS011;42288;52.182;21.156;2023-07-30T07:15:43;5.43;;;3.50;;
16979;SDS011;42288;52.182;21.156;2023-07-30T07:18:09;7.40;;;3.50;;
16979;SDS011;42288;52.182;21.156;2023-07-30T07:20:36;5.40;;;4.07;;
16979;SDS011;42288;52.182;21.156;2023-07-30T07:23:02;8.23;;;4.70;;
16979;SDS011;42288;52.182;21.156;2023-07-30T07:25:28;7.80;;;4.73;;
16979;SDS011;42288;52.182;21.156;2023-07-30T07:27:54;6.73;;;4.30;;
16979;SDS011;42288;52.182;21.156;2023-07-30T07:30:19;6.80;;;4.30;;
16979;SDS011;42288;52.182;21.156;2023-07-30T07:32:45;9.97;;;4.20;;
16979;SDS011;42288;52.182;21.156;2023-07-30T07:35:15;5.40;;;4.47;;
16979;SDS011;42288;52.182;21.156;2023-07-30T07:37:41;6.87;;;4.60;;
16979;SDS011;42288;52.182;21.156;2023-07-30T07:40:07;7.87;;;4.03;;
16979;SDS011;42288;52.182;21.156;2023-07-30T07:42:34;8.90;;;4.93;;
16979;SDS011;42288;52.182;21.156;2023-07-30T07:45:00;6.57;;;5.10;;
16979;SDS011;42288;52.182;21.156;2023-07-30T07:47:26;10.20;;;5.13;;
16979;SDS011;42288;52.182;21.156;2023-07-30T07:49:51;8.33;;;5.00;;
16979;SDS011;42288;52.182;21.156;2023-07-30T07:52:17;5.33;;;4.50;;
16979;SDS011;42288;52.182;21.156;2023-07-30T07:54:44;6.37;;;4.13;;
16979;SDS011;42288;52.182;21.156;2023-07-30T07:57:10;5.00;;;4.30;;
16979;SDS011;42288;52.182;21.156;2023-07-30T07:59:35;8.73;;;4.23;;
16979;SDS011;42288;52.182;21.156;2023-07-30T08:02:01;4.47;;;4.00;;
16979;SDS011;42288;52.182;21.156;2023-07-30T08:04:27;5.97;;;4.70;;
16979;SDS011;42288;52.182;21.156;2023-07-30T08:06:53;6.30;;;3.93;;
16979;SDS011;42288;52.182;21.156;2023-07-30T08:09:18;7.27;;;4.23;;
16979;SDS011;42288;52.182;21.156;2023-07-30T08:11:44;7.70;;;4.57;;
16979;SDS011;42288;52.182;21.156;2023-07-30T08:14:10;5.77;;;3.60;;
16979;SDS011;42288;52.182;21.156;2023-07-30T08:16:35;7.53;;;3.57;;
16979;SDS011;42288;52.182;21.156;2023-07-30T08:19:01;4.80;;;3.53;;
16979;SDS011;42288;52.182;21.156;2023-07-30T08:21:26;4.90;;;2.90;;
16979;SDS011;42288;52.182;21.156;2023-07-30T08:23:52;6.60;;;3.47;;
16979;SDS011;42288;52.182;21.156;2023-07-30T08:26:17;4.87;;;3.20;;
16979;SDS011;42288;52.182;21.156;2023-07-30T08:28:43;4.43;;;3.17;;
16979;SDS011;42288;52.182;21.156;2023-07-30T08:31:09;4.83;;;3.57;;
16979;SDS011;42288;52.182;21.156;2023-07-30T08:33:34;6.83;;;3.33;;
16979;SDS011;42288;52.182;21.156;2023-07-30T08:36:00;7.17;;;3.30;;
16979;SDS011;42288;52.182;21.156;2023-07-30T08:38:25;5.43;;;3.33;;
16979;SDS011;42288;52.182;21.156;2023-07-30T08:40:51;5.67;;;3.20;;
16979;SDS011;42288;52.182;21.156;2023-07-30T08:43:20;4.90;;;3.47;;
16979;SDS011;42288;52.182;21.156;2023-07-30T08:45:45;7.13;;;3.47;;
16979;SDS011;42288;52.182;21.156;2023-07-30T08:48:11;4.47;;;3.53;;
16979;SDS011;42288;52.182;21.156;2023-07-30T08:50:37;7.70;;;3.87;;
16979;SDS011;42288;52.182;21.156;2023-07-30T08:53:03;5.27;;;2.97;;
16979;SDS011;42288;52.182;21.156;2023-07-30T08:55:32;5.83;;;3.50;;
16979;SDS011;42288;52.182;21.156;2023-07-30T08:57:59;5.77;;;3.40;;
16979;SDS011;42288;52.182;21.156;2023-07-30T09:00:27;5.07;;;3.43;;
16979;SDS011;42288;52.182;21.156;2023-07-30T09:02:59;4.60;;;2.80;;
16979;SDS011;42288;52.182;21.156;2023-07-30T09:05:27;4.40;;;3.30;;
16979;SDS011;42288;52.182;21.156;2023-07-30T09:07:54;4.73;;;2.97;;
16979;SDS011;42288;52.182;21.156;2023-07-30T09:10:21;6.10;;;3.37;;
16979;SDS011;42288;52.182;21.156;2023-07-30T09:12:52;5.73;;;3.00;;
16979;SDS011;42288;52.182;21.156;2023-07-30T09:15:19;4.77;;;3.23;;
16979;SDS011;42288;52.182;21.156;2023-07-30T09:17:56;4.73;;;2.93;;
16979;SDS011;42288;52.182;21.156;2023-07-30T09:20:21;5.20;;;3.03;;
16979;SDS011;42288;52.182;21.156;2023-07-30T09:22:47;3.43;;;2.70;;
16979;SDS011;42288;52.182;21.156;2023-07-30T09:25:17;3.80;;;2.83;;
16979;SDS011;42288;52.182;21.156;2023-07-30T09:27:47;4.07;;;2.80;;
16979;SDS011;42288;52.182;21.156;2023-07-30T09:30:21;3.40;;;3.10;;
16979;SDS011;42288;52.182;21.156;2023-07-30T09:32:52;3.60;;;3.00;;
16979;SDS011;42288;52.182;21.156;2023-07-30T09:35:19;3.17;;;2.70;;
16979;SDS011;42288;52.182;21.156;2023-07-30T09:37:45;3.10;;;2.80;;
16979;SDS011;42288;52.182;21.156;2023-07-30T09:40:15;3.80;;;2.57;;
16979;SDS011;42288;52.182;21.156;2023-07-30T09:42:44;3.03;;;2.30;;
16979;SDS011;42288;52.182;21.156;2023-07-30T09:45:21;2.50;;;2.20;;
16979;SDS011;42288;52.182;21.156;2023-07-30T09:47:52;4.40;;;2.83;;
16979;SDS011;42288;52.182;21.156;2023-07-30T09:50:21;4.30;;;2.40;;
16979;SDS011;42288;52.182;21.156;2023-07-30T09:52:47;3.20;;;2.70;;
16979;SDS011;42288;52.182;21.156;2023-07-30T09:55:15;2.80;;;2.40;;
16979;SDS011;42288;52.182;21.156;2023-07-30T09:57:41;3.00;;;2.40;;
16979;SDS011;42288;52.182;21.156;2023-07-30T10:00:06;4.27;;;2.50;;
16979;SDS011;42288;52.182;21.156;2023-07-30T10:02:37;2.93;;;2.20;;
16979;SDS011;42288;52.182;21.156;2023-07-30T10:05:10;5.37;;;2.80;;
16979;SDS011;42288;52.182;21.156;2023-07-30T10:07:40;3.17;;;2.60;;
16979;SDS011;42288;52.182;21.156;2023-07-30T10:10:09;2.77;;;2.43;;
16979;SDS011;42288;52.182;21.156;2023-07-30T10:12:36;5.23;;;3.07;;
16979;SDS011;42288;52.182;21.156;2023-07-30T10:15:05;3.23;;;2.77;;
16979;SDS011;42288;52.182;21.156;2023-07-30T10:17:32;3.95;;;2.50;;
16979;SDS011;42288;52.182;21.156;2023-07-30T10:19:58;2.58;;;2.38;;
16979;SDS011;42288;52.182;21.156;2023-07-30T10:22:46;3.08;;;2.35;;
16979;SDS011;42288;52.182;21.156;2023-07-30T10:25:15;4.03;;;2.60;;
16979;SDS011;42288;52.182;21.156;2023-07-30T10:27:41;3.08;;;2.70;;
16979;SDS011;42288;52.182;21.156;2023-07-30T10:30:15;3.00;;;2.70;;
16979;SDS011;42288;52.182;21.156;2023-07-30T10:32:57;2.50;;;2.30;;
16979;SDS011;42288;52.182;21.156;2023-07-30T10:35:44;2.80;;;2.60;;
16979;SDS011;42288;52.182;21.156;2023-07-30T10:38:20;3.28;;;2.38;;
16979;SDS011;42288;52.182;21.156;2023-07-30T10:40:59;2.95;;;2.35;;
16979;SDS011;42288;52.182;21.156;2023-07-30T10:43:30;4.13;;;2.30;;
16979;SDS011;42288;52.182;21.156;2023-07-30T10:46:18;3.08;;;2.28;;
16979;SDS011;42288;52.182;21.156;2023-07-30T10:48:45;4.90;;;2.83;;
16979;SDS011;42288;52.182;21.156;2023-07-30T10:51:13;3.45;;;2.65;;
16979;SDS011;42288;52.182;21.156;2023-07-30T10:53:46;2.72;;;2.22;;
16979;SDS011;42288;52.182;21.156;2023-07-30T10:56:15;3.97;;;2.53;;
16979;SDS011;42288;52.182;21.156;2023-07-30T10:58:42;4.72;;;2.58;;
16979;SDS011;42288;52.182;21.156;2023-07-30T11:01:08;3.15;;;2.15;;
16979;SDS011;42288;52.182;21.156;2023-07-30T11:03:34;2.33;;;2.10;;
16979;SDS011;42288;52.182;21.156;2023-07-30T11:06:01;2.72;;;2.40;;
16979;SDS011;42288;52.182;21.156;2023-07-30T11:11:03;2.50;;;2.30;;
16979;SDS011;42288;52.182;21.156;2023-07-30T11:13:34;3.20;;;2.22;;
16979;SDS011;42288;52.182;21.156;2023-07-30T11:16:06;2.92;;;2.60;;
16979;SDS011;42288;52.182;21.156;2023-07-30T11:18:32;2.97;;;2.60;;
16979;SDS011;42288;52.182;21.156;2023-07-30T11:21:08;5.53;;;2.78;;
16979;SDS011;42288;52.182;21.156;2023-07-30T11:23:35;5.78;;;2.47;;
16979;SDS011;42288;52.182;21.156;2023-07-30T11:26:02;4.18;;;2.45;;
16979;SDS011;42288;52.182;21.156;2023-07-30T11:28:30;3.47;;;2.17;;
16979;SDS011;42288;52.182;21.156;2023-07-30T11:31:06;2.40;;;2.20;;
16979;SDS011;42288;52.182;21.156;2023-07-30T11:33:37;2.60;;;2.40;;
16979;SDS011;42288;52.182;21.156;2023-07-30T11:36:06;3.75;;;2.58;;
16979;SDS011;42288;52.182;21.156;2023-07-30T11:38:36;5.05;;;2.72;;
16979;SDS011;42288;52.182;21.156;2023-07-30T11:41:03;2.83;;;2.40;;
16979;SDS011;42288;52.182;21.156;2023-07-30T11:43:30;2.75;;;2.47;;
16979;SDS011;42288;52.182;21.156;2023-07-30T11:46:06;2.75;;;2.40;;
16979;SDS011;42288;52.182;21.156;2023-07-30T11:48:33;2.70;;;2.47;;
16979;SDS011;42288;52.182;21.156;2023-07-30T11:50:59;2.80;;;2.40;;
16979;SDS011;42288;52.182;21.156;2023-07-30T11:53:43;3.28;;;2.63;;
16979;SDS011;42288;52.182;21.156;2023-07-30T11:56:20;5.75;;;2.78;;
16979;SDS011;42288;52.182;21.156;2023-07-30T11:58:57;6.13;;;2.75;;
16979;SDS011;42288;52.182;21.156;2023-07-30T12:01:26;2.85;;;2.42;;
16979;SDS011;42288;52.182;21.156;2023-07-30T12:03:54;3.05;;;2.67;;
16979;SDS011;42288;52.182;21.156;2023-07-30T12:06:20;4.40;;;2.83;;
16979;SDS011;42288;52.182;21.156;2023-07-30T12:08:48;4.22;;;2.75;;
16979;SDS011;42288;52.182;21.156;2023-07-30T12:11:14;3.80;;;2.70;;
16979;SDS011;42288;52.182;21.156;2023-07-30T12:13:44;2.92;;;2.60;;
16979;SDS011;42288;52.182;21.156;2023-07-30T12:16:11;3.22;;;2.92;;
16979;SDS011;42288;52.182;21.156;2023-07-30T12:18:37;5.32;;;3.30;;
16979;SDS011;42288;52.182;21.156;2023-07-30T12:21:04;3.83;;;3.00;;
16979;SDS011;42288;52.182;21.156;2023-07-30T12:23:32;3.55;;;3.13;;
16979;SDS011;42288;52.182;21.156;2023-07-30T12:26:02;3.50;;;2.90;;
16979;SDS011;42288;52.182;21.156;2023-07-30T12:28:34;4.70;;;2.88;;
16979;SDS011;42288;52.182;21.156;2023-07-30T12:31:00;3.15;;;2.85;;
16979;SDS011;42288;52.182;21.156;2023-07-30T12:33:26;3.88;;;2.90;;
16979;SDS011;42288;52.182;21.156;2023-07-30T12:35:51;4.63;;;3.00;;
16979;SDS011;42288;52.182;21.156;2023-07-30T12:38:18;4.13;;;2.72;;
16979;SDS011;42288;52.182;21.156;2023-07-30T12:40:43;7.22;;;2.83;;
16979;SDS011;42288;52.182;21.156;2023-07-30T12:43:09;3.38;;;2.75;;
16979;SDS011;42288;52.182;21.156;2023-07-30T12:45:35;4.25;;;2.83;;
16979;SDS011;42288;52.182;21.156;2023-07-30T12:48:01;3.38;;;3.08;;
16979;SDS011;42288;52.182;21.156;2023-07-30T12:50:27;4.07;;;3.10;;
16979;SDS011;42288;52.182;21.156;2023-07-30T12:52:52;7.68;;;3.13;;
16979;SDS011;42288;52.182;21.156;2023-07-30T12:55:18;3.30;;;2.67;;
16979;SDS011;42288;52.182;21.156;2023-07-30T12:57:44;5.00;;;3.00;;
16979;SDS011;42288;52.182;21.156;2023-07-30T13:00:09;3.55;;;3.10;;
16979;SDS011;42288;52.182;21.156;2023-07-30T13:02:35;3.65;;;3.30;;
16979;SDS011;42288;52.182;21.156;2023-07-30T13:05:01;6.25;;;2.97;;
16979;SDS011;42288;52.182;21.156;2023-07-30T13:07:28;2.92;;;2.60;;
16979;SDS011;42288;52.182;21.156;2023-07-30T13:10:07;3.42;;;2.83;;
16979;SDS011;42288;52.182;21.156;2023-07-30T13:12:34;4.60;;;2.72;;
16979;SDS011;42288;52.182;21.156;2023-07-30T13:15:00;4.28;;;3.50;;
16979;SDS011;42288;52.182;21.156;2023-07-30T13:17:26;3.08;;;2.72;;
16979;SDS011;42288;52.182;21.156;2023-07-30T13:19:52;4.55;;;3.10;;
16979;SDS011;42288;52.182;21.156;2023-07-30T13:22:18;3.38;;;3.05;;
16979;SDS011;42288;52.182;21.156;2023-07-30T13:24:43;3.22;;;2.80;;
16979;SDS011;42288;52.182;21.156;2023-07-30T13:27:09;3.75;;;2.67;;
16979;SDS011;42288;52.182;21.156;2023-07-30T13:29:35;4.32;;;2.78;;
16979;SDS011;42288;52.182;21.156;2023-07-30T13:32:01;3.83;;;2.50;;
16979;SDS011;42288;52.182;21.156;2023-07-30T13:34:26;4.13;;;2.88;;
16979;SDS011;42288;52.182;21.156;2023-07-30T13:36:52;4.65;;;2.60;;
16979;SDS011;42288;52.182;21.156;2023-07-30T13:39:18;3.13;;;2.63;;
16979;SDS011;42288;52.182;21.156;2023-07-30T13:41:43;4.80;;;2.60;;
16979;SDS011;42288;52.182;21.156;2023-07-30T13:44:09;3.60;;;2.85;;
16979;SDS011;42288;52.182;21.156;2023-07-30T13:46:36;3.38;;;2.78;;
16979;SDS011;42288;52.182;21.156;2023-07-30T13:49:02;2.97;;;2.67;;
16979;SDS011;42288;52.182;21.156;2023-07-30T13:51:28;3.75;;;2.70;;
16979;SDS011;42288;52.182;21.156;2023-07-30T13:53:57;2.70;;;2.50;;
16979;SDS011;42288;52.182;21.156;2023-07-30T13:56:27;2.92;;;2.63;;
16979;SDS011;42288;52.182;21.156;2023-07-30T13:58:53;4.13;;;2.70;;
16979;SDS011;42288;52.182;21.156;2023-07-30T14:01:19;3.80;;;2.60;;
16979;SDS011;42288;52.182;21.156;2023-07-30T14:03:45;6.93;;;2.75;;
16979;SDS011;42288;52.182;21.156;2023-07-30T14:06:11;3.38;;;2.63;;
16979;SDS011;42288;52.182;21.156;2023-07-30T14:08:36;3.50;;;2.60;;
16979;SDS011;42288;52.182;21.156;2023-07-30T14:11:02;3.80;;;2.80;;
16979;SDS011;42288;52.182;21.156;2023-07-30T14:13:28;2.67;;;2.30;;
16979;SDS011;42288;52.182;21.156;2023-07-30T14:15:53;5.45;;;2.70;;
16979;SDS011;42288;52.182;21.156;2023-07-30T14:18:19;3.83;;;2.70;;
16979;SDS011;42288;52.182;21.156;2023-07-30T14:20:45;2.90;;;2.60;;
16979;SDS011;42288;52.182;21.156;2023-07-30T14:23:10;4.05;;;2.72;;
16979;SDS011;42288;52.182;21.156;2023-07-30T14:25:36;3.88;;;2.65;;
16979;SDS011;42288;52.182;21.156;2023-07-30T14:28:02;3.00;;;2.42;;
16979;SDS011;42288;52.182;21.156;2023-07-30T14:30:29;2.60;;;2.40;;
16979;SDS011;42288;52.182;21.156;2023-07-30T14:32:54;3.95;;;2.58;;
16979;SDS011;42288;52.182;21.156;2023-07-30T14:35:20;3.13;;;2.75;;
16979;SDS011;42288;52.182;21.156;2023-07-30T14:37:45;2.95;;;2.40;;
16979;SDS011;42288;52.182;21.156;2023-07-30T14:40:11;5.28;;;2.80;;
16979;SDS011;42288;52.182;21.156;2023-07-30T14:42:37;7.30;;;2.83;;
16979;SDS011;42288;52.182;21.156;2023-07-30T14:45:02;4.25;;;2.60;;
16979;SDS011;42288;52.182;21.156;2023-07-30T14:47:28;3.53;;;2.55;;